createdAt,value
2023-10-26T00:00:03.001Z,10.84
2023-10-26T00:01:02.980Z,10.82
2023-10-26T00:02:02.944Z,10.82
2023-10-26T00:03:03.120Z,10.84
2023-10-26T00:04:03.045Z,10.82
2023-10-26T00:05:03.078Z,10.84
2023-10-26T00:06:02.990Z,10.81
2023-10-26T00:07:02.905Z,10.81
2023-10-26T00:08:02.900Z,10.78
2023-10-26T00:09:02.898Z,10.78
2023-10-26T00:10:02.876Z,10.79
2023-10-26T00:11:02.876Z,10.79
2023-10-26T00:12:02.892Z,10.81
2023-10-26T00:13:02.872Z,10.81
2023-10-26T00:14:02.829Z,10.81
2023-10-26T00:15:02.892Z,10.79
2023-10-26T00:16:02.808Z,10.79
2023-10-26T00:17:02.824Z,10.79
2023-10-26T00:18:02.857Z,10.79
2023-10-26T00:19:02.881Z,10.78
2023-10-26T00:20:02.800Z,10.79
2023-10-26T00:21:02.796Z,10.79
2023-10-26T00:22:02.781Z,10.81
2023-10-26T00:23:02.787Z,10.79
2023-10-26T00:24:02.794Z,10.79
2023-10-26T00:25:02.707Z,10.79
2023-10-26T00:26:02.715Z,10.81
2023-10-26T00:27:02.715Z,10.79
2023-10-26T00:28:02.729Z,10.78
2023-10-26T00:29:02.653Z,10.76
2023-10-26T00:30:02.713Z,10.76
2023-10-26T00:31:02.654Z,10.76
2023-10-26T00:32:02.646Z,10.76
2023-10-26T00:33:02.747Z,10.78
2023-10-26T00:34:02.655Z,10.76
2023-10-26T00:35:02.603Z,10.74
2023-10-26T00:36:02.635Z,10.73
2023-10-26T00:37:02.585Z,10.71
2023-10-26T00:38:02.558Z,10.73
2023-10-26T00:39:02.683Z,10.73
2023-10-26T00:40:02.536Z,10.70
2023-10-26T00:41:02.584Z,10.71
2023-10-26T00:42:02.638Z,10.71
2023-10-26T00:43:02.491Z,10.68
2023-10-26T00:44:02.522Z,10.70
2023-10-26T00:45:02.516Z,10.70
2023-10-26T00:46:02.511Z,10.68
2023-10-26T00:47:02.493Z,10.68
2023-10-26T00:48:02.564Z,10.70
2023-10-26T00:49:02.637Z,10.67
2023-10-26T00:50:02.469Z,10.67
2023-10-26T00:51:02.601Z,10.67
2023-10-26T00:52:02.531Z,10.64
2023-10-26T00:53:02.375Z,10.63
2023-10-26T00:54:02.479Z,10.63
2023-10-26T00:55:02.384Z,10.61
2023-10-26T00:56:02.369Z,10.59
2023-10-26T00:57:02.448Z,10.55
2023-10-26T00:58:02.344Z,10.55
2023-10-26T00:59:02.322Z,10.53
2023-10-26T01:00:02.430Z,10.55
2023-10-26T01:01:02.288Z,10.55
2023-10-26T01:02:02.340Z,10.55
2023-10-26T01:03:02.402Z,10.53
2023-10-26T01:04:02.278Z,10.51
2023-10-26T01:05:02.267Z,10.51
2023-10-26T01:06:02.368Z,10.51
2023-10-26T01:07:02.313Z,10.47
2023-10-26T01:08:02.262Z,10.45
2023-10-26T01:09:02.287Z,10.44
2023-10-26T01:10:02.262Z,10.44
2023-10-26T01:11:02.191Z,10.44
2023-10-26T01:12:02.230Z,10.41
2023-10-26T01:13:02.212Z,10.40
2023-10-26T01:14:02.204Z,10.36
2023-10-26T01:15:02.244Z,10.34
2023-10-26T01:16:02.148Z,10.34
2023-10-26T01:17:02.143Z,10.34
2023-10-26T01:18:02.243Z,10.33
2023-10-26T01:19:02.212Z,10.36
2023-10-26T01:20:02.115Z,10.33
2023-10-26T01:21:02.169Z,10.34
2023-10-26T01:22:02.087Z,10.32
2023-10-26T01:23:02.082Z,10.30
2023-10-26T01:24:02.153Z,10.29
2023-10-26T01:25:02.082Z,10.32
2023-10-26T01:26:02.244Z,10.32
2023-10-26T01:27:02.032Z,10.32
2023-10-26T01:28:02.061Z,10.33
2023-10-26T01:29:02.156Z,10.29
2023-10-26T01:30:02.061Z,10.29
2023-10-26T01:31:01.985Z,10.30
2023-10-26T01:32:01.979Z,10.26
2023-10-26T01:33:02.103Z,10.25
2023-10-26T01:34:01.967Z,10.22
2023-10-26T01:35:01.982Z,10.22
2023-10-26T01:36:01.961Z,10.18
2023-10-26T01:37:01.933Z,10.17
2023-10-26T01:38:01.938Z,10.18
2023-10-26T01:39:01.984Z,10.18
2023-10-26T01:40:01.917Z,10.15
2023-10-26T01:41:01.893Z,10.15
2023-10-26T01:42:01.920Z,10.14
2023-10-26T01:43:01.875Z,10.14
2023-10-26T01:44:01.924Z,10.14
2023-10-26T01:45:01.909Z,10.14
2023-10-26T01:46:01.824Z,10.11
2023-10-26T01:47:01.840Z,10.09
2023-10-26T01:48:01.904Z,10.11
2023-10-26T01:49:01.940Z,10.07
2023-10-26T01:50:01.824Z,10.05
2023-10-26T01:51:01.838Z,10.04
2023-10-26T01:52:01.768Z,10.04
2023-10-26T01:53:01.748Z,10.04
2023-10-26T01:54:01.823Z,10.07
2023-10-26T01:55:01.745Z,10.01
2023-10-26T01:56:01.735Z,9.99
2023-10-26T01:57:01.808Z,10.02
2023-10-26T01:58:01.691Z,9.99
2023-10-26T01:59:01.675Z,9.99
2023-10-26T02:00:01.756Z,9.99
2023-10-26T02:01:01.660Z,9.99
2023-10-26T02:02:01.648Z,9.93
2023-10-26T02:03:01.736Z,9.94
2023-10-26T02:04:01.636Z,9.94
2023-10-26T02:05:01.683Z,9.97
2023-10-26T02:06:01.821Z,9.96
2023-10-26T02:07:01.630Z,9.91
2023-10-26T02:08:01.641Z,9.89
2023-10-26T02:09:01.631Z,9.89
2023-10-26T02:10:01.597Z,9.89
2023-10-26T02:11:01.611Z,9.87
2023-10-26T02:12:01.576Z,9.83
2023-10-26T02:13:01.538Z,9.84
2023-10-26T02:14:01.562Z,9.83
2023-10-26T02:15:01.576Z,9.83
2023-10-26T02:16:01.503Z,9.83
2023-10-26T02:17:01.497Z,9.84
2023-10-26T02:18:01.566Z,9.86
2023-10-26T02:19:01.710Z,9.84
2023-10-26T02:20:01.502Z,9.84
2023-10-26T02:21:01.475Z,9.83
2023-10-26T02:22:01.459Z,9.79
2023-10-26T02:23:01.418Z,9.79
2023-10-26T02:24:01.486Z,9.75
2023-10-26T02:25:01.406Z,9.75
2023-10-26T02:26:01.410Z,9.74
2023-10-26T02:27:01.402Z,9.74
2023-10-26T02:28:01.371Z,9.71
2023-10-26T02:29:01.361Z,9.69
2023-10-26T02:30:01.434Z,9.66
2023-10-26T02:31:01.352Z,9.68
2023-10-26T02:32:01.336Z,9.68
2023-10-26T02:33:01.479Z,9.72
2023-10-26T02:34:01.341Z,9.72
2023-10-26T02:35:01.342Z,9.74
2023-10-26T02:36:01.416Z,9.75
2023-10-26T02:37:01.294Z,9.76
2023-10-26T02:38:01.281Z,9.75
2023-10-26T02:39:01.298Z,9.72
2023-10-26T02:40:01.259Z,9.71
2023-10-26T02:41:01.280Z,9.75
2023-10-26T02:42:01.360Z,9.75
2023-10-26T02:43:01.215Z,9.76
2023-10-26T02:44:01.246Z,9.75
2023-10-26T02:45:01.316Z,9.76
2023-10-26T02:46:01.194Z,9.81
2023-10-26T02:47:01.197Z,9.78
2023-10-26T02:48:01.277Z,9.76
2023-10-26T02:49:01.152Z,9.78
2023-10-26T02:50:01.197Z,9.74
2023-10-26T02:51:01.168Z,9.78
2023-10-26T02:52:01.140Z,9.74
2023-10-26T02:53:01.109Z,9.71
2023-10-26T02:54:01.202Z,9.72
2023-10-26T02:55:01.146Z,9.71
2023-10-26T02:56:01.097Z,9.71
2023-10-26T02:57:01.145Z,9.72
2023-10-26T02:58:01.114Z,9.74
2023-10-26T02:59:01.058Z,9.69
2023-10-26T03:00:01.145Z,9.74
2023-10-26T03:01:01.027Z,9.74
2023-10-26T03:02:01.017Z,9.71
2023-10-26T03:03:01.158Z,9.71
2023-10-26T03:04:01.168Z,9.69
2023-10-26T03:05:01.000Z,9.69
2023-10-26T03:06:01.015Z,9.71
2023-10-26T03:07:00.971Z,9.72
2023-10-26T03:08:00.997Z,9.68
2023-10-26T03:09:00.986Z,9.68
2023-10-26T03:10:01.124Z,9.66
2023-10-26T03:11:00.918Z,9.66
2023-10-26T03:12:00.950Z,9.65
2023-10-26T03:13:00.922Z,9.66
2023-10-26T03:14:00.895Z,9.66
2023-10-26T03:15:00.916Z,9.65
2023-10-26T03:16:00.879Z,9.64
2023-10-26T03:17:00.898Z,9.64
2023-10-26T03:18:00.884Z,9.61
2023-10-26T03:19:00.850Z,9.66
2023-10-26T03:20:00.847Z,9.65
2023-10-26T03:21:00.859Z,9.68
2023-10-26T03:22:00.818Z,9.65
2023-10-26T03:23:00.810Z,9.65
2023-10-26T03:24:00.842Z,9.68
2023-10-26T03:25:00.810Z,9.69
2023-10-26T03:26:00.758Z,9.66
2023-10-26T03:27:02.550Z,9.66
2023-10-26T03:28:00.756Z,9.66
2023-10-26T03:29:00.747Z,9.65
2023-10-26T03:30:00.776Z,9.66
2023-10-26T03:31:00.743Z,9.68
2023-10-26T03:32:00.714Z,9.69
2023-10-26T03:33:00.787Z,9.66
2023-10-26T03:34:00.710Z,9.65
2023-10-26T03:35:00.695Z,9.61
2023-10-26T03:36:00.704Z,9.60
2023-10-26T03:37:00.702Z,9.56
2023-10-26T03:38:00.647Z,9.57
2023-10-26T03:39:00.668Z,9.58
2023-10-26T03:40:00.613Z,9.57
2023-10-26T03:41:00.622Z,9.61
2023-10-26T03:42:00.680Z,9.58
2023-10-26T03:43:00.592Z,9.58
2023-10-26T03:44:00.567Z,9.57
2023-10-26T03:45:00.599Z,9.57
2023-10-26T03:46:00.578Z,9.57
2023-10-26T03:47:00.591Z,9.58
2023-10-26T03:48:00.612Z,9.60
2023-10-26T03:49:00.543Z,9.61
2023-10-26T03:50:00.571Z,9.61
2023-10-26T03:51:00.545Z,9.60
2023-10-26T03:52:00.757Z,9.61
2023-10-26T03:53:00.498Z,9.61
2023-10-26T03:54:00.566Z,9.60
2023-10-26T03:55:00.470Z,9.61
2023-10-26T03:56:00.465Z,9.64
2023-10-26T03:57:00.478Z,9.61
2023-10-26T03:58:00.479Z,9.64
2023-10-26T03:59:00.432Z,9.64
2023-10-26T04:00:00.584Z,9.58
2023-10-26T04:01:00.396Z,9.60
2023-10-26T04:02:00.452Z,9.60
2023-10-26T04:03:02.131Z,9.58
2023-10-26T04:04:00.356Z,9.54
2023-10-26T04:05:00.358Z,9.56
2023-10-26T04:06:00.394Z,9.58
2023-10-26T04:07:00.324Z,9.57
2023-10-26T04:08:00.405Z,9.60
2023-10-26T04:09:00.325Z,9.57
2023-10-26T04:10:00.293Z,9.60
2023-10-26T04:11:00.283Z,9.64
2023-10-26T04:12:00.330Z,9.56
2023-10-26T04:13:00.851Z,9.56
2023-10-26T04:14:00.302Z,9.56
2023-10-26T04:15:00.314Z,9.56
2023-10-26T04:16:00.341Z,9.54
2023-10-26T04:17:00.234Z,9.56
2023-10-26T04:18:00.303Z,9.54
2023-10-26T04:19:00.200Z,9.56
2023-10-26T04:20:01.001Z,9.53
2023-10-26T04:21:00.222Z,9.54
2023-10-26T04:22:00.150Z,9.56
2023-10-26T04:23:00.222Z,9.56
2023-10-26T04:24:00.211Z,9.57
2023-10-26T04:25:00.177Z,9.56
2023-10-26T04:26:00.141Z,9.57
2023-10-26T04:27:00.136Z,9.53
2023-10-26T04:28:00.090Z,9.53
2023-10-26T04:29:00.095Z,9.51
2023-10-26T04:30:00.084Z,9.51
2023-10-26T04:31:00.103Z,9.48
2023-10-26T04:32:00.106Z,9.50
2023-10-26T04:33:00.160Z,9.51
2023-10-26T04:34:00.024Z,9.50
2023-10-26T04:35:00.016Z,9.48
2023-10-26T04:36:00.029Z,9.46
2023-10-26T04:37:00.032Z,9.46
2023-10-26T04:37:59.998Z,9.43
2023-10-26T04:39:00.084Z,9.46
2023-10-26T04:40:00.718Z,9.47
2023-10-26T04:40:59.973Z,9.42
2023-10-26T04:42:00.002Z,9.43
2023-10-26T04:42:59.951Z,9.40
2023-10-26T04:43:59.929Z,9.39
2023-10-26T04:44:59.942Z,9.39
2023-10-26T04:45:59.983Z,9.40
2023-10-26T04:46:59.909Z,9.39
2023-10-26T04:47:59.971Z,9.42
2023-10-26T04:48:59.902Z,9.38
2023-10-26T04:49:59.928Z,9.42
2023-10-26T04:51:00.097Z,9.43
2023-10-26T04:51:59.876Z,9.46
2023-10-26T04:52:59.847Z,9.47
2023-10-26T04:53:59.850Z,9.43
2023-10-26T04:54:59.858Z,9.46
2023-10-26T04:55:59.862Z,9.43
2023-10-26T04:56:59.816Z,9.43
2023-10-26T04:57:59.789Z,9.42
2023-10-26T04:58:59.778Z,9.42
2023-10-26T04:59:59.788Z,9.43
2023-10-26T05:00:59.771Z,9.43
2023-10-26T05:01:59.822Z,9.43
2023-10-26T05:02:59.836Z,9.42
2023-10-26T05:03:59.739Z,9.42
2023-10-26T05:04:59.723Z,9.42
2023-10-26T05:06:00.005Z,9.40
2023-10-26T05:06:59.825Z,9.40
2023-10-26T05:07:59.724Z,9.39
2023-10-26T05:09:00.811Z,9.40
2023-10-26T05:09:59.652Z,9.39
2023-10-26T05:10:59.655Z,9.40
2023-10-26T05:11:59.654Z,9.43
2023-10-26T05:12:59.646Z,9.43
2023-10-26T05:13:59.608Z,9.43
2023-10-26T05:14:59.660Z,9.42
2023-10-26T05:15:59.603Z,9.42
2023-10-26T05:16:59.630Z,9.42
2023-10-26T05:17:59.701Z,9.46
2023-10-26T05:18:59.681Z,9.43
2023-10-26T05:19:59.543Z,9.46
2023-10-26T05:20:59.600Z,9.42
2023-10-26T05:22:01.336Z,9.47
2023-10-26T05:22:59.491Z,9.42
2023-10-26T05:23:59.538Z,9.40
2023-10-26T05:24:59.506Z,9.40
2023-10-26T05:25:59.492Z,9.39
2023-10-26T05:26:59.530Z,9.39
2023-10-26T05:27:59.456Z,9.38
2023-10-26T05:28:59.430Z,9.40
2023-10-26T05:29:59.482Z,9.40
2023-10-26T05:30:59.443Z,9.40
2023-10-26T05:31:59.496Z,9.42
2023-10-26T05:32:59.570Z,9.40
2023-10-26T05:33:59.439Z,9.40
2023-10-26T05:34:59.369Z,9.42
2023-10-26T05:35:59.393Z,9.39
2023-10-26T05:36:59.347Z,9.40
2023-10-26T05:37:59.330Z,9.42
2023-10-26T05:38:59.442Z,9.43
2023-10-26T05:39:59.309Z,9.42
2023-10-26T05:40:59.307Z,9.46
2023-10-26T05:42:06.198Z,9.42
2023-10-26T05:42:59.285Z,9.46
2023-10-26T05:43:59.263Z,9.46
2023-10-26T05:44:59.330Z,9.46
2023-10-26T05:45:59.283Z,9.43
2023-10-26T05:46:59.508Z,9.46
2023-10-26T05:48:00.174Z,9.43
2023-10-26T05:48:59.377Z,9.43
2023-10-26T05:49:59.342Z,9.43
2023-10-26T05:50:59.340Z,9.43
2023-10-26T05:51:59.186Z,9.46
2023-10-26T05:52:59.156Z,9.46
2023-10-26T05:53:59.225Z,9.42
2023-10-26T05:54:59.158Z,9.46
2023-10-26T05:55:59.169Z,9.43
2023-10-26T05:56:59.211Z,9.47
2023-10-26T05:57:59.101Z,9.43
2023-10-26T05:58:59.151Z,9.46
2023-10-26T05:59:59.170Z,9.47
2023-10-26T06:00:59.150Z,9.48
2023-10-26T06:01:59.071Z,9.48
2023-10-26T06:02:59.126Z,9.48
2023-10-26T06:03:59.084Z,9.51
2023-10-26T06:04:59.103Z,9.51
2023-10-26T06:05:59.061Z,9.51
2023-10-26T06:06:59.025Z,9.50
2023-10-26T06:07:59.000Z,9.50
2023-10-26T06:08:59.043Z,9.51
2023-10-26T06:09:59.006Z,9.53
2023-10-26T06:10:59.036Z,9.53
2023-10-26T06:11:59.050Z,9.51
2023-10-26T06:12:58.945Z,9.51
2023-10-26T06:13:58.927Z,9.50
2023-10-26T06:14:58.989Z,9.53
2023-10-26T06:15:58.981Z,9.51
2023-10-26T06:16:58.897Z,9.51
2023-10-26T06:17:59.023Z,9.53
2023-10-26T06:18:58.888Z,9.53
2023-10-26T06:19:58.959Z,9.54
2023-10-26T06:20:58.962Z,9.53
2023-10-26T06:21:58.885Z,9.51
2023-10-26T06:22:58.821Z,9.53
2023-10-26T06:23:58.904Z,9.51
2023-10-26T06:24:58.904Z,9.51
2023-10-26T06:25:58.786Z,9.56
2023-10-26T06:26:58.821Z,9.51
2023-10-26T06:27:58.817Z,9.50
2023-10-26T06:28:58.766Z,9.48
2023-10-26T06:29:58.800Z,9.50
2023-10-26T06:30:58.703Z,9.50
2023-10-26T06:31:58.864Z,9.47
2023-10-26T06:32:58.846Z,9.48
2023-10-26T06:33:58.734Z,9.48
2023-10-26T06:34:58.717Z,9.48
2023-10-26T06:35:58.740Z,9.48
2023-10-26T06:36:58.731Z,9.48
2023-10-26T06:37:58.743Z,9.48
2023-10-26T06:38:58.721Z,9.47
2023-10-26T06:39:58.755Z,9.47
2023-10-26T06:40:58.689Z,9.48
2023-10-26T06:41:58.692Z,9.47
2023-10-26T06:42:58.653Z,9.47
2023-10-26T06:43:58.634Z,9.47
2023-10-26T06:44:58.678Z,9.47
2023-10-26T06:45:58.639Z,9.46
2023-10-26T06:46:58.564Z,9.46
2023-10-26T06:47:58.552Z,9.47
2023-10-26T06:48:58.607Z,9.50
2023-10-26T06:49:58.526Z,9.47
2023-10-26T06:50:58.528Z,9.50
2023-10-26T06:51:58.486Z,9.48
2023-10-26T06:52:58.485Z,9.50
2023-10-26T06:53:58.509Z,9.48
2023-10-26T06:54:58.511Z,9.48
2023-10-26T06:55:58.542Z,9.50
2023-10-26T06:56:58.525Z,9.53
2023-10-26T06:57:58.470Z,9.53
2023-10-26T06:58:58.447Z,9.53
2023-10-26T06:59:58.544Z,9.50
2023-10-26T07:00:58.438Z,9.53
2023-10-26T07:02:09.124Z,9.50
2023-10-26T07:02:58.551Z,9.53
2023-10-26T07:03:58.665Z,9.51
2023-10-26T07:04:59.011Z,9.51
2023-10-26T07:05:58.416Z,9.53
2023-10-26T07:06:58.448Z,9.51
2023-10-26T07:07:58.337Z,9.54
2023-10-26T07:08:58.311Z,9.51
2023-10-26T07:09:58.340Z,9.51
2023-10-26T07:10:58.324Z,9.53
2023-10-26T07:11:58.327Z,9.53
2023-10-26T07:12:58.330Z,9.54
2023-10-26T07:13:58.332Z,9.56
2023-10-26T07:14:58.289Z,9.56
2023-10-26T07:15:58.629Z,9.54
2023-10-26T07:16:58.247Z,9.57
2023-10-26T07:17:58.217Z,9.57
2023-10-26T07:18:58.243Z,9.57
2023-10-26T07:19:58.179Z,9.56
2023-10-26T07:20:58.276Z,9.57
2023-10-26T07:21:58.215Z,9.58
2023-10-26T07:22:58.145Z,9.58
2023-10-26T07:23:58.180Z,9.58
2023-10-26T07:24:58.224Z,9.57
2023-10-26T07:25:58.177Z,9.60
2023-10-26T07:26:58.170Z,9.58
2023-10-26T07:27:58.155Z,9.61
2023-10-26T07:28:58.121Z,9.64
2023-10-26T07:29:58.153Z,9.64
2023-10-26T07:30:58.214Z,9.60
2023-10-26T07:31:58.139Z,9.58
2023-10-26T07:32:58.163Z,9.60
2023-10-26T07:33:58.208Z,9.60
2023-10-26T07:34:58.052Z,9.60
2023-10-26T07:35:58.060Z,9.60
2023-10-26T07:36:57.994Z,9.61
2023-10-26T07:38:05.644Z,9.61
2023-10-26T07:39:45.368Z,9.56
2023-10-26T07:40:28.312Z,9.57
2023-10-26T07:40:58.071Z,9.56
2023-10-26T07:42:06.438Z,9.57
2023-10-26T07:42:57.954Z,9.60
2023-10-26T07:43:57.961Z,9.58
2023-10-26T07:44:57.896Z,9.58
2023-10-26T07:45:58.020Z,9.56
2023-10-26T07:46:57.912Z,9.58
2023-10-26T07:48:01.890Z,9.57
2023-10-26T07:48:57.855Z,9.56
2023-10-26T07:49:57.908Z,9.57
2023-10-26T07:50:57.900Z,9.58
2023-10-26T07:51:57.862Z,9.58
2023-10-26T07:52:57.850Z,9.58
2023-10-26T07:53:57.864Z,9.58
2023-10-26T07:54:57.809Z,9.60
2023-10-26T07:55:57.797Z,9.60
2023-10-26T07:56:57.849Z,9.60
2023-10-26T07:57:57.817Z,9.60
2023-10-26T07:58:57.815Z,9.58
2023-10-26T07:59:57.755Z,9.61
2023-10-26T08:00:57.734Z,9.60
2023-10-26T08:01:57.857Z,9.60
2023-10-26T08:02:57.855Z,9.60
2023-10-26T08:03:57.720Z,9.60
2023-10-26T08:04:57.871Z,9.61
2023-10-26T08:05:57.692Z,9.64
2023-10-26T08:06:57.678Z,9.61
2023-10-26T08:07:57.752Z,9.60
2023-10-26T08:08:57.721Z,9.58
2023-10-26T08:09:57.652Z,9.58
2023-10-26T08:10:57.690Z,9.60
2023-10-26T08:11:57.668Z,9.60
2023-10-26T08:12:57.658Z,9.61
2023-10-26T08:13:57.742Z,9.61
2023-10-26T08:16:10.460Z,9.66
2023-10-26T08:16:44.617Z,9.65
2023-10-26T08:16:57.699Z,9.66
2023-10-26T08:17:57.719Z,9.65
2023-10-26T08:18:57.715Z,9.66
2023-10-26T08:19:58.407Z,9.65
2023-10-26T08:20:57.552Z,9.65
2023-10-26T08:21:57.583Z,9.65
2023-10-26T08:22:57.744Z,9.64
2023-10-26T08:23:57.550Z,9.64
2023-10-26T08:24:57.616Z,9.61
2023-10-26T08:25:57.548Z,9.61
2023-10-26T08:26:57.646Z,9.61
2023-10-26T08:27:57.589Z,9.60
2023-10-26T08:29:11.930Z,9.61
2023-10-26T08:29:57.593Z,9.60
2023-10-26T08:30:57.567Z,9.60
2023-10-26T08:31:57.722Z,9.61
2023-10-26T08:32:57.829Z,9.58
2023-10-26T08:33:57.550Z,9.64
2023-10-26T08:34:57.650Z,9.65
2023-10-26T08:35:57.787Z,9.66
2023-10-26T08:37:57.548Z,9.66
2023-10-26T08:38:57.589Z,9.68
2023-10-26T08:39:57.407Z,9.66
2023-10-26T08:40:57.512Z,9.69
2023-10-26T08:41:57.467Z,9.68
2023-10-26T08:42:57.754Z,9.69
2023-10-26T08:43:57.973Z,9.66
2023-10-26T08:44:57.580Z,9.66
2023-10-26T08:45:57.815Z,9.69
2023-10-26T08:46:57.628Z,9.68
2023-10-26T08:47:57.553Z,9.65
2023-10-26T08:48:57.287Z,9.65
2023-10-26T08:50:14.773Z,9.65
2023-10-26T08:50:57.406Z,9.66
2023-10-26T08:51:57.401Z,9.64
2023-10-26T08:52:57.285Z,9.65
2023-10-26T08:53:58.230Z,9.66
2023-10-26T08:54:57.332Z,9.69
2023-10-26T08:55:57.286Z,9.71
2023-10-26T08:56:57.240Z,9.74
2023-10-26T08:57:57.226Z,9.74
2023-10-26T08:58:57.408Z,9.76
2023-10-26T08:59:57.318Z,9.74
2023-10-26T09:00:57.315Z,9.75
2023-10-26T09:01:57.415Z,9.72
2023-10-26T09:02:57.370Z,9.72
2023-10-26T09:03:57.306Z,9.71
2023-10-26T09:04:57.400Z,9.69
2023-10-26T09:05:57.173Z,9.68
2023-10-26T09:06:57.302Z,9.71
2023-10-26T09:07:57.210Z,9.71
2023-10-26T09:08:57.218Z,9.74
2023-10-26T09:09:57.223Z,9.75
2023-10-26T09:10:57.263Z,9.76
2023-10-26T09:11:57.066Z,9.79
2023-10-26T09:12:57.074Z,9.79
2023-10-26T09:13:57.063Z,9.78
2023-10-26T09:14:59.381Z,9.78
2023-10-26T09:15:57.032Z,9.76
2023-10-26T09:16:57.151Z,9.76
2023-10-26T09:17:57.073Z,9.78
2023-10-26T09:18:56.995Z,9.79
2023-10-26T09:19:57.089Z,9.79
2023-10-26T09:20:57.016Z,9.79
2023-10-26T09:21:57.102Z,9.79
2023-10-26T09:22:56.997Z,9.81
2023-10-26T09:23:56.955Z,9.79
2023-10-26T09:24:57.039Z,9.78
2023-10-26T09:25:56.998Z,9.76
2023-10-26T09:26:56.941Z,9.76
2023-10-26T09:27:56.995Z,9.81
2023-10-26T09:28:56.967Z,9.79
2023-10-26T09:29:56.845Z,9.79
2023-10-26T09:30:56.925Z,9.81
2023-10-26T09:31:57.191Z,9.83
2023-10-26T09:32:56.930Z,9.84
2023-10-26T09:33:56.813Z,9.84
2023-10-26T09:34:56.906Z,9.86
2023-10-26T09:35:56.920Z,9.83
2023-10-26T09:36:56.755Z,9.83
2023-10-26T09:37:57.122Z,9.79
2023-10-26T09:38:56.838Z,9.79
2023-10-26T09:40:12.245Z,9.81
2023-10-26T09:40:56.988Z,9.83
2023-10-26T09:41:56.732Z,9.84
2023-10-26T09:42:56.945Z,9.83
2023-10-26T09:43:56.885Z,9.84
2023-10-26T09:44:56.710Z,9.86
2023-10-26T09:45:56.672Z,9.86
2023-10-26T09:46:56.764Z,9.87
2023-10-26T09:47:56.900Z,9.90
2023-10-26T09:48:56.693Z,9.90
2023-10-26T09:49:56.672Z,9.91
2023-10-26T09:50:56.576Z,9.96
2023-10-26T09:51:56.625Z,9.94
2023-10-26T09:52:56.653Z,9.96
2023-10-26T09:53:56.706Z,9.97
2023-10-26T09:54:56.681Z,9.97
2023-10-26T09:55:56.651Z,9.94
2023-10-26T09:56:56.557Z,9.93
2023-10-26T09:57:56.669Z,9.91
2023-10-26T09:58:56.508Z,9.93
2023-10-26T09:59:59.185Z,9.94
2023-10-26T10:00:56.620Z,9.94
2023-10-26T10:01:56.649Z,9.93
2023-10-26T10:02:56.523Z,9.94
2023-10-26T10:03:56.530Z,9.94
2023-10-26T10:04:56.552Z,9.91
2023-10-26T10:05:56.552Z,9.94
2023-10-26T10:06:56.515Z,9.96
2023-10-26T10:07:56.428Z,9.96
2023-10-26T10:08:56.501Z,9.97
2023-10-26T10:09:56.493Z,9.96
2023-10-26T10:10:56.454Z,9.94
2023-10-26T10:11:56.356Z,9.93
2023-10-26T10:12:56.462Z,9.93
2023-10-26T10:13:56.343Z,9.91
2023-10-26T10:15:05.302Z,9.93
2023-10-26T10:15:56.344Z,9.93
2023-10-26T10:16:56.399Z,9.91
2023-10-26T10:17:56.437Z,9.93
2023-10-26T10:18:56.309Z,9.90
2023-10-26T10:19:56.254Z,9.91
2023-10-26T10:20:56.227Z,9.91
2023-10-26T10:21:56.277Z,9.91
2023-10-26T10:22:56.241Z,9.89
2023-10-26T10:23:56.219Z,9.86
2023-10-26T10:24:56.232Z,9.86
2023-10-26T10:25:56.200Z,9.87
2023-10-26T10:26:56.245Z,9.90
2023-10-26T10:27:56.232Z,9.94
2023-10-26T10:28:56.195Z,9.96
2023-10-26T10:29:56.177Z,9.94
2023-10-26T10:30:56.182Z,9.96
2023-10-26T10:31:56.219Z,9.97
2023-10-26T10:32:56.230Z,9.97
2023-10-26T10:33:56.142Z,9.99
2023-10-26T10:34:56.103Z,9.97
2023-10-26T10:35:56.142Z,9.97
2023-10-26T10:36:56.071Z,9.97
2023-10-26T10:37:56.048Z,9.97
2023-10-26T10:38:56.042Z,9.96
2023-10-26T10:39:56.055Z,9.96
2023-10-26T10:40:56.215Z,9.94
2023-10-26T10:41:56.021Z,9.94
2023-10-26T10:42:56.287Z,9.99
2023-10-26T10:43:55.981Z,9.99
2023-10-26T10:44:55.981Z,9.99
2023-10-26T10:45:56.033Z,10.01
2023-10-26T10:46:56.004Z,10.02
2023-10-26T10:47:56.030Z,10.02
2023-10-26T10:48:56.024Z,9.97
2023-10-26T10:49:55.936Z,9.96
2023-10-26T10:50:55.864Z,9.94
2023-10-26T10:51:55.939Z,9.93
2023-10-26T10:52:55.915Z,9.87
2023-10-26T10:53:57.587Z,9.93
2023-10-26T10:55:03.115Z,9.93
2023-10-26T10:55:55.838Z,9.93
2023-10-26T10:56:55.834Z,9.96
2023-10-26T10:57:55.860Z,9.94
2023-10-26T10:58:55.815Z,9.97
2023-10-26T10:59:55.787Z,10.01
2023-10-26T11:00:55.802Z,10.04
2023-10-26T11:01:55.823Z,10.04
2023-10-26T11:02:55.760Z,10.05
2023-10-26T11:03:55.816Z,10.04
2023-10-26T11:05:05.538Z,10.02
2023-10-26T11:05:55.777Z,10.04
2023-10-26T11:06:55.781Z,10.08
2023-10-26T11:07:55.823Z,10.15
2023-10-26T11:08:55.690Z,10.17
2023-10-26T11:09:55.700Z,10.18
2023-10-26T11:10:55.685Z,10.18
2023-10-26T11:11:55.711Z,10.17
2023-10-26T11:12:55.767Z,10.22
2023-10-26T11:13:55.650Z,10.22
2023-10-26T11:14:55.656Z,10.26
2023-10-26T11:15:55.728Z,10.27
2023-10-26T11:16:55.656Z,10.27
2023-10-26T11:17:55.689Z,10.32
2023-10-26T11:18:55.731Z,10.33
2023-10-26T11:19:55.626Z,10.34
2023-10-26T11:20:55.628Z,10.34
2023-10-26T11:21:55.694Z,10.34
2023-10-26T11:22:55.558Z,10.38
2023-10-26T11:23:55.581Z,10.44
2023-10-26T11:24:55.638Z,10.42
2023-10-26T11:25:55.556Z,10.42
2023-10-26T11:26:55.629Z,10.40
2023-10-26T11:27:57.212Z,10.42
2023-10-26T11:28:55.542Z,10.42
2023-10-26T11:29:55.486Z,10.44
2023-10-26T11:30:55.527Z,10.45
2023-10-26T11:31:55.490Z,10.44
2023-10-26T11:32:55.533Z,10.45
2023-10-26T11:33:55.493Z,10.44
2023-10-26T11:34:55.502Z,10.44
2023-10-26T11:35:55.427Z,10.45
2023-10-26T11:36:55.478Z,10.41
2023-10-26T11:37:55.422Z,10.38
2023-10-26T11:38:55.394Z,10.36
2023-10-26T11:39:55.441Z,10.33
2023-10-26T11:40:55.391Z,10.34
2023-10-26T11:41:55.359Z,10.30
2023-10-26T11:42:55.392Z,10.29
2023-10-26T11:43:55.392Z,10.26
2023-10-26T11:44:55.489Z,10.25
2023-10-26T11:45:55.399Z,10.26
2023-10-26T11:46:55.349Z,10.27
2023-10-26T11:47:55.462Z,10.26
2023-10-26T11:48:55.350Z,10.29
2023-10-26T11:49:55.294Z,10.27
2023-10-26T11:50:55.268Z,10.27
2023-10-26T11:51:59.836Z,10.26
2023-10-26T11:52:55.358Z,10.23
2023-10-26T11:53:55.248Z,10.23
2023-10-26T11:54:55.276Z,10.23
2023-10-26T11:55:55.281Z,10.26
2023-10-26T11:56:55.269Z,10.25
2023-10-26T11:57:55.384Z,10.22
2023-10-26T11:58:55.222Z,10.22
2023-10-26T11:59:56.260Z,10.18
2023-10-26T12:00:55.221Z,10.20
2023-10-26T12:01:55.181Z,10.18
2023-10-26T12:02:55.244Z,10.22
2023-10-26T12:03:55.255Z,10.20
2023-10-26T12:04:55.124Z,10.18
2023-10-26T12:05:56.735Z,10.18
2023-10-26T12:06:55.155Z,10.18
2023-10-26T12:07:55.104Z,10.15
2023-10-26T12:08:55.198Z,10.15
2023-10-26T12:09:55.100Z,10.17
2023-10-26T12:10:55.116Z,10.20
2023-10-26T12:11:55.043Z,10.20
2023-10-26T12:12:55.060Z,10.23
2023-10-26T12:13:55.045Z,10.22
2023-10-26T12:14:55.083Z,10.23
2023-10-26T12:15:55.048Z,10.26
2023-10-26T12:16:55.046Z,10.27
2023-10-26T12:17:55.021Z,10.27
2023-10-26T12:18:55.279Z,10.30
2023-10-26T12:19:54.959Z,10.27
2023-10-26T12:20:54.956Z,10.25
2023-10-26T12:21:56.409Z,10.22
2023-10-26T12:22:54.952Z,10.23
2023-10-26T12:23:54.957Z,10.25
2023-10-26T12:24:54.966Z,10.26
2023-10-26T12:25:54.931Z,10.25
2023-10-26T12:26:54.898Z,10.25
2023-10-26T12:28:20.229Z,10.25
2023-10-26T12:28:54.894Z,10.25
2023-10-26T12:29:54.844Z,10.23
2023-10-26T12:30:55.095Z,10.23
2023-10-26T12:31:54.869Z,10.23
2023-10-26T12:32:54.869Z,10.25
2023-10-26T12:33:54.848Z,10.22
2023-10-26T12:34:54.819Z,10.22
2023-10-26T12:35:54.788Z,10.20
2023-10-26T12:36:54.819Z,10.15
2023-10-26T12:37:54.815Z,10.15
2023-10-26T12:38:54.775Z,10.15
2023-10-26T12:39:54.821Z,10.14
2023-10-26T12:40:54.761Z,10.15
2023-10-26T12:41:54.727Z,10.15
2023-10-26T12:42:54.761Z,10.15
2023-10-26T12:43:54.720Z,10.18
2023-10-26T12:44:54.735Z,10.15
2023-10-26T12:45:54.713Z,10.18
2023-10-26T12:46:54.670Z,10.20
2023-10-26T12:47:54.771Z,10.23
2023-10-26T12:48:54.720Z,10.23
2023-10-26T12:49:54.655Z,10.26
2023-10-26T12:50:54.682Z,10.25
2023-10-26T12:51:54.650Z,10.26
2023-10-26T12:52:54.641Z,10.29
2023-10-26T12:53:54.737Z,10.29
2023-10-26T12:54:54.599Z,10.26
2023-10-26T12:55:54.626Z,10.27
2023-10-26T12:56:54.598Z,10.26
2023-10-26T12:57:57.177Z,10.23
2023-10-26T12:58:54.563Z,10.25
2023-10-26T12:59:54.540Z,10.25
2023-10-26T13:00:54.633Z,10.25
2023-10-26T13:01:54.547Z,10.22
2023-10-26T13:02:54.573Z,10.23
2023-10-26T13:03:56.504Z,10.22
2023-10-26T13:04:54.507Z,10.20
2023-10-26T13:05:54.484Z,10.23
2023-10-26T13:06:54.508Z,10.25
2023-10-26T13:07:54.436Z,10.22
2023-10-26T13:08:54.427Z,10.22
2023-10-26T13:09:54.525Z,10.20
2023-10-26T13:10:54.506Z,10.22